Easterwood Field College Station US
ICAO: KCLL
IATA: CLL
Category: Medium
Scheduled Services: Yes

Elevation: 320 ft
TransAlt. 18000 ft.

Airport Communications:
ATIS:126.85
HOUSTON CNTR:120.4
CTAF:118.5
GND:128.7
MONTGOMERY CO RDO:122.2
TWR:118.5
UNICOM:122.95

KCLL Zoom In..

If Map Doesn't Load, Click Here

Runways:

(A) RW 04 length 5150 ft width 150 ft
---- / hdg 44

(B) RW 10 length 5158 ft width 150 ft
---- / hdg 103

(C) RW 16 length 7000 ft width 146 ft
---- / hdg 163

(D) RW 22 length 5150 ft width 150 ft
---- / hdg 224

(E) RW 28 length 5158 ft width 150 ft
---- / hdg 283

(F) RW 34 length 7000 ft width 146 ft
ILS 111.70 / hdg 343

Location; KCLL
Day. 24 / Time. 06.07 Zulu
* Altimeter: 29.90
* Temperature: 22° c. 71.6°f.
* Wind from: 270° Speed 03 kn.
Dewpoint: 22° c.
Visibility: 10 Statute Miles.
Clouds: Scattered 2400 ft.
Clouds: Overcast 4300 ft.

KCLL 240607Z AUTO 27003KT 10SM SCT024 OVC043 22/22 A2990 RMK AO2 T02170217


Wind From 270°
Speed 03 kn.

 
 
jpsmedia.com for Web Design worldairports.se 2018   terms of use